createdAt,value
2017-04-29T00:00:22.827Z,0
2017-04-29T00:01:03.341Z,0
2017-04-29T00:01:43.873Z,0
2017-04-29T00:02:24.402Z,0
2017-04-29T00:03:04.911Z,0
2017-04-29T00:03:45.421Z,0
2017-04-29T00:04:25.962Z,0
2017-04-29T00:05:06.500Z,0
2017-04-29T00:05:47.014Z,0
2017-04-29T00:06:27.534Z,0
2017-04-29T00:07:08.056Z,0
2017-04-29T00:07:48.590Z,0
2017-04-29T00:08:29.126Z,0
2017-04-29T00:09:09.651Z,0
2017-04-29T00:09:50.178Z,0
2017-04-29T00:10:30.715Z,0
2017-04-29T00:11:11.238Z,0
2017-04-29T00:11:51.778Z,0
2017-04-29T00:12:32.296Z,0
2017-04-29T00:13:12.832Z,0
2017-04-29T00:13:53.356Z,0
2017-04-29T00:14:33.881Z,0
2017-04-29T00:15:14.412Z,0
2017-04-29T00:15:54.943Z,0
2017-04-29T00:16:35.523Z,0
2017-04-29T00:17:16.039Z,0
2017-04-29T00:17:56.564Z,0
2017-04-29T00:18:37.083Z,0
2017-04-29T00:19:17.614Z,0
2017-04-29T00:19:58.136Z,0
2017-04-29T00:20:38.649Z,0
2017-04-29T00:21:19.179Z,0
2017-04-29T00:21:59.713Z,0
2017-04-29T00:22:40.232Z,0
2017-04-29T00:23:20.769Z,0
2017-04-29T00:24:01.300Z,0
2017-04-29T00:24:41.819Z,0
2017-04-29T00:25:22.321Z,0
2017-04-29T00:26:02.857Z,0
2017-04-29T00:26:43.368Z,0
2017-04-29T00:27:23.888Z,0
2017-04-29T00:28:04.422Z,0
2017-04-29T00:28:44.949Z,0
2017-04-29T00:29:25.481Z,0
2017-04-29T00:30:06.018Z,0
2017-04-29T00:30:46.548Z,0
2017-04-29T00:31:27.090Z,0
2017-04-29T00:32:07.576Z,0
2017-04-29T00:32:48.080Z,0
2017-04-29T00:33:28.619Z,0
2017-04-29T00:34:09.144Z,0
2017-04-29T00:34:49.669Z,0
2017-04-29T00:35:30.194Z,0
2017-04-29T00:36:10.726Z,0
2017-04-29T00:36:51.262Z,0
2017-04-29T00:37:31.808Z,0
2017-04-29T00:38:12.347Z,0
2017-04-29T00:38:52.876Z,0
2017-04-29T00:39:33.401Z,0
2017-04-29T00:40:13.913Z,0
2017-04-29T00:40:54.433Z,0
2017-04-29T00:41:34.942Z,0
2017-04-29T00:42:15.450Z,0
2017-04-29T00:42:55.964Z,0
2017-04-29T00:43:36.470Z,0
2017-04-29T00:44:16.985Z,0
2017-04-29T00:44:57.509Z,0
2017-04-29T00:45:38.032Z,0
2017-04-29T00:46:18.559Z,0
2017-04-29T00:46:59.077Z,0
2017-04-29T00:47:39.592Z,0
2017-04-29T00:48:20.132Z,0
2017-04-29T00:49:00.649Z,0
2017-04-29T00:49:41.167Z,0
2017-04-29T00:50:21.693Z,0
2017-04-29T00:51:02.279Z,0
2017-04-29T00:51:42.820Z,0
2017-04-29T00:52:23.349Z,0
2017-04-29T00:53:03.865Z,0
2017-04-29T00:53:44.398Z,0
2017-04-29T00:54:24.929Z,0
2017-04-29T00:55:05.452Z,0
2017-04-29T00:55:45.979Z,0
2017-04-29T00:56:26.504Z,0
2017-04-29T00:57:07.055Z,0
2017-04-29T00:57:47.566Z,0
2017-04-29T00:58:28.095Z,0
2017-04-29T00:59:08.637Z,0
2017-04-29T00:59:49.173Z,0
2017-04-29T01:00:29.707Z,0
2017-04-29T01:01:10.255Z,0
2017-04-29T01:01:50.753Z,0
2017-04-29T01:02:31.291Z,0
2017-04-29T01:03:11.825Z,0
2017-04-29T01:03:52.334Z,0
2017-04-29T01:04:32.853Z,0
2017-04-29T01:05:13.391Z,0
2017-04-29T01:05:53.916Z,0
2017-04-29T01:06:34.460Z,0
2017-04-29T01:07:14.986Z,0
2017-04-29T01:07:55.504Z,0
2017-04-29T01:08:36.044Z,0
2017-04-29T01:09:16.580Z,0
2017-04-29T01:09:57.118Z,0
2017-04-29T01:10:37.650Z,0
2017-04-29T01:11:18.183Z,0
2017-04-29T01:11:58.703Z,0
2017-04-29T01:12:39.250Z,0
2017-04-29T01:13:19.783Z,0
2017-04-29T01:14:00.317Z,0
2017-04-29T01:14:40.824Z,0
2017-04-29T01:15:21.369Z,0
2017-04-29T01:16:01.883Z,0
2017-04-29T01:16:42.427Z,0
2017-04-29T01:17:22.963Z,0
2017-04-29T01:18:03.478Z,0
2017-04-29T01:18:43.998Z,0
2017-04-29T01:19:24.533Z,0
2017-04-29T01:20:05.065Z,0
2017-04-29T01:20:45.594Z,0
2017-04-29T01:21:26.116Z,0
2017-04-29T01:22:06.631Z,0
2017-04-29T01:22:47.167Z,0
2017-04-29T01:23:27.680Z,0
2017-04-29T01:24:08.200Z,0
2017-04-29T01:24:48.732Z,0
2017-04-29T01:25:29.259Z,0
2017-04-29T01:26:09.773Z,0
2017-04-29T01:26:50.306Z,0
2017-04-29T01:27:30.853Z,0
2017-04-29T01:28:11.381Z,0
2017-04-29T01:28:51.911Z,0
2017-04-29T01:29:32.449Z,0
2017-04-29T01:30:12.968Z,0
2017-04-29T01:30:53.507Z,0
2017-04-29T01:31:34.041Z,0
2017-04-29T01:32:14.576Z,0
2017-04-29T01:33:01.837Z,0
2017-04-29T01:33:42.364Z,0
2017-04-29T01:34:22.899Z,0
2017-04-29T01:35:03.430Z,0
2017-04-29T01:35:43.969Z,0
2017-04-29T01:36:24.504Z,0
2017-04-29T01:37:05.033Z,0
2017-04-29T01:37:45.569Z,0
2017-04-29T01:38:26.103Z,0
2017-04-29T01:39:06.645Z,0
2017-04-29T01:39:47.177Z,0
2017-04-29T01:40:27.706Z,0
2017-04-29T01:41:08.239Z,0
2017-04-29T01:41:48.776Z,0
2017-04-29T01:42:29.297Z,0
2017-04-29T01:43:09.824Z,0
2017-04-29T01:43:50.356Z,0
2017-04-29T01:44:30.889Z,0
2017-04-29T01:45:11.434Z,0
2017-04-29T01:45:51.964Z,0
2017-04-29T01:46:32.503Z,0
2017-04-29T01:47:13.038Z,0
2017-04-29T01:47:53.566Z,0
2017-04-29T01:48:34.090Z,0
2017-04-29T01:49:14.615Z,0
2017-04-29T01:49:55.148Z,0
2017-04-29T01:50:35.681Z,0
2017-04-29T01:51:16.212Z,0
2017-04-29T01:51:56.743Z,0
2017-04-29T01:52:37.270Z,0
2017-04-29T01:53:17.809Z,0
2017-04-29T01:53:58.346Z,0
2017-04-29T01:54:38.876Z,0
2017-04-29T01:55:19.414Z,0
2017-04-29T01:55:59.940Z,0
2017-04-29T01:56:40.477Z,0
2017-04-29T01:57:21.003Z,0
2017-04-29T01:58:01.549Z,0
2017-04-29T01:58:42.081Z,0
2017-04-29T01:59:22.616Z,0
2017-04-29T02:00:03.143Z,0
2017-04-29T02:00:43.664Z,0
2017-04-29T02:01:24.195Z,0
2017-04-29T02:02:04.725Z,0
2017-04-29T02:02:45.242Z,0
2017-04-29T02:03:25.770Z,0
2017-04-29T02:04:06.293Z,0
2017-04-29T02:04:46.821Z,0
2017-04-29T02:05:27.350Z,0
2017-04-29T02:06:07.867Z,0
2017-04-29T02:06:48.382Z,0
2017-04-29T02:07:28.903Z,0
2017-04-29T02:08:09.444Z,0
2017-04-29T02:08:49.970Z,0
2017-04-29T02:09:30.488Z,0
2017-04-29T02:10:11.008Z,0
2017-04-29T02:10:51.531Z,0
2017-04-29T02:11:32.047Z,0
2017-04-29T02:12:12.583Z,0
2017-04-29T02:12:53.096Z,0
2017-04-29T02:13:33.627Z,0
2017-04-29T02:14:14.162Z,0
2017-04-29T02:14:54.725Z,0
2017-04-29T02:15:35.226Z,0
2017-04-29T02:16:15.762Z,0
2017-04-29T02:16:56.292Z,0
2017-04-29T02:17:36.832Z,0
2017-04-29T02:18:17.370Z,0
2017-04-29T02:18:57.887Z,0
2017-04-29T02:19:38.402Z,0
2017-04-29T02:20:18.923Z,0
2017-04-29T02:20:59.458Z,0
2017-04-29T02:21:39.996Z,0
2017-04-29T02:22:20.524Z,0
2017-04-29T02:23:01.065Z,0
2017-04-29T02:23:41.576Z,0
2017-04-29T02:24:22.101Z,0
2017-04-29T02:25:02.620Z,0
2017-04-29T02:25:43.143Z,0
2017-04-29T02:26:23.660Z,0
2017-04-29T02:27:04.199Z,0
2017-04-29T02:27:44.700Z,0
2017-04-29T02:28:25.271Z,0
2017-04-29T02:29:05.770Z,0
2017-04-29T02:29:46.306Z,0
2017-04-29T02:30:26.824Z,0
2017-04-29T02:31:07.351Z,0
2017-04-29T02:31:47.886Z,0
2017-04-29T02:32:28.399Z,0
2017-04-29T02:33:08.992Z,0
2017-04-29T02:33:49.524Z,0
2017-04-29T02:34:30.044Z,0
2017-04-29T02:35:10.573Z,0
2017-04-29T02:35:51.110Z,0
2017-04-29T02:36:31.651Z,0
2017-04-29T02:37:12.185Z,0
2017-04-29T02:37:52.702Z,0
2017-04-29T02:38:33.246Z,0
2017-04-29T02:39:13.777Z,0
2017-04-29T02:39:54.310Z,0
2017-04-29T02:40:34.848Z,0
2017-04-29T02:41:15.377Z,0
2017-04-29T02:41:55.913Z,0
2017-04-29T02:42:36.428Z,0
2017-04-29T02:43:16.954Z,0
2017-04-29T02:43:57.483Z,0
2017-04-29T02:44:38.015Z,0
2017-04-29T02:45:18.531Z,0
2017-04-29T02:45:59.064Z,0
2017-04-29T02:46:39.606Z,0
2017-04-29T02:47:20.138Z,0
2017-04-29T02:48:00.651Z,0
2017-04-29T02:48:41.166Z,0
2017-04-29T02:49:21.695Z,0
2017-04-29T02:50:02.222Z,0
2017-04-29T02:50:42.757Z,0
2017-04-29T02:51:23.274Z,0
2017-04-29T02:52:03.817Z,0
2017-04-29T02:52:44.319Z,0
2017-04-29T02:53:24.822Z,0
2017-04-29T02:54:05.357Z,0
2017-04-29T02:54:45.888Z,0
2017-04-29T02:55:26.395Z,0
2017-04-29T02:56:06.901Z,0
2017-04-29T02:56:47.428Z,0
2017-04-29T02:57:27.953Z,0
2017-04-29T02:58:08.479Z,0
2017-04-29T02:58:49.012Z,0
2017-04-29T02:59:29.547Z,0
2017-04-29T03:00:10.088Z,0
2017-04-29T03:00:50.606Z,0
2017-04-29T03:01:31.143Z,0
2017-04-29T03:02:11.671Z,0
2017-04-29T03:02:52.205Z,0
2017-04-29T03:03:32.732Z,0
2017-04-29T03:04:13.259Z,0
2017-04-29T03:04:53.781Z,0
2017-04-29T03:05:34.304Z,0
2017-04-29T03:06:14.844Z,0
2017-04-29T03:06:55.371Z,0
2017-04-29T03:07:35.904Z,0
2017-04-29T03:08:16.425Z,0
2017-04-29T03:08:56.967Z,0
2017-04-29T03:09:37.480Z,0
2017-04-29T03:10:18.003Z,0
2017-04-29T03:10:58.528Z,0
2017-04-29T03:11:39.049Z,0
2017-04-29T03:12:19.567Z,0
2017-04-29T03:13:00.094Z,0
2017-04-29T03:13:40.617Z,0
2017-04-29T03:14:21.138Z,0
2017-04-29T03:15:01.675Z,0
2017-04-29T03:15:42.204Z,0
2017-04-29T03:16:22.727Z,0
2017-04-29T03:17:03.268Z,0
2017-04-29T03:17:43.809Z,0
2017-04-29T03:18:24.344Z,0
2017-04-29T03:19:04.865Z,0
2017-04-29T03:19:45.396Z,0
2017-04-29T03:20:25.927Z,0
2017-04-29T03:21:06.450Z,0
2017-04-29T03:21:46.987Z,0
2017-04-29T03:22:27.510Z,0
2017-04-29T03:23:08.034Z,0
2017-04-29T03:23:48.572Z,0
2017-04-29T03:24:29.099Z,0
2017-04-29T03:25:09.642Z,0
2017-04-29T03:25:50.171Z,0
2017-04-29T03:26:30.698Z,0
2017-04-29T03:27:11.225Z,0
2017-04-29T03:27:51.758Z,0
2017-04-29T03:28:32.253Z,0
2017-04-29T03:29:12.781Z,0
2017-04-29T03:29:53.292Z,0
2017-04-29T03:30:33.849Z,0
2017-04-29T03:31:14.409Z,0
2017-04-29T03:31:54.963Z,0
2017-04-29T03:32:35.462Z,0
2017-04-29T03:33:15.984Z,0
2017-04-29T03:33:56.536Z,0
2017-04-29T03:34:37.043Z,0
2017-04-29T03:35:17.555Z,0
2017-04-29T03:35:58.111Z,0
2017-04-29T03:36:38.592Z,0
2017-04-29T03:37:19.154Z,0
2017-04-29T03:37:59.720Z,0
2017-04-29T03:38:40.306Z,0
2017-04-29T03:39:20.866Z,0
2017-04-29T03:40:01.389Z,0
2017-04-29T03:40:41.923Z,0
2017-04-29T03:41:22.457Z,4
2017-04-29T03:42:02.982Z,4
2017-04-29T03:42:43.477Z,4
2017-04-29T03:43:24.006Z,0
2017-04-29T03:44:04.571Z,4
2017-04-29T03:44:45.039Z,4
2017-04-29T03:45:25.551Z,4
2017-04-29T03:46:06.100Z,4
2017-04-29T03:46:46.637Z,4
2017-04-29T03:47:27.189Z,4
2017-04-29T03:48:07.702Z,4
2017-04-29T03:48:48.172Z,4
2017-04-29T03:49:28.698Z,8
2017-04-29T03:50:09.215Z,8
2017-04-29T03:50:49.716Z,8
2017-04-29T03:51:30.230Z,12
2017-04-29T03:52:10.766Z,12
2017-04-29T03:52:51.244Z,12
2017-04-29T03:53:31.762Z,12
2017-04-29T03:54:12.252Z,16
2017-04-29T03:54:52.800Z,20
2017-04-29T03:55:33.316Z,16
2017-04-29T03:56:13.839Z,16
2017-04-29T03:56:54.423Z,20
2017-04-29T03:57:34.923Z,24
2017-04-29T03:58:15.439Z,24
2017-04-29T03:58:55.956Z,28
2017-04-29T03:59:36.464Z,28
2017-04-29T04:00:17.003Z,32
2017-04-29T04:00:57.513Z,32
2017-04-29T04:01:38.053Z,36
2017-04-29T04:02:18.587Z,36
2017-04-29T04:02:59.123Z,40
2017-04-29T04:03:39.631Z,44
2017-04-29T04:04:20.177Z,44
2017-04-29T04:05:00.710Z,48
2017-04-29T04:05:41.238Z,56
2017-04-29T04:06:21.757Z,60
2017-04-29T04:07:02.276Z,64
2017-04-29T04:07:42.788Z,68
2017-04-29T04:08:23.308Z,68
2017-04-29T04:09:03.830Z,76
2017-04-29T04:09:44.379Z,84
2017-04-29T04:10:24.891Z,84
2017-04-29T04:11:05.410Z,88
2017-04-29T04:11:45.937Z,96
2017-04-29T04:12:26.467Z,104
2017-04-29T04:13:07.007Z,112
2017-04-29T04:13:47.503Z,120
2017-04-29T04:14:28.036Z,128
2017-04-29T04:15:08.549Z,132
2017-04-29T04:15:49.076Z,140
2017-04-29T04:16:29.593Z,144
2017-04-29T04:17:10.120Z,152
2017-04-29T04:17:50.644Z,156
2017-04-29T04:18:31.155Z,164
2017-04-29T04:19:11.698Z,172
2017-04-29T04:19:52.216Z,180
2017-04-29T04:20:32.728Z,188
2017-04-29T04:21:13.251Z,196
2017-04-29T04:21:53.768Z,204
2017-04-29T04:22:34.318Z,212
2017-04-29T04:23:14.792Z,224
2017-04-29T04:23:55.316Z,240
2017-04-29T04:24:35.837Z,256
2017-04-29T04:25:16.331Z,264
2017-04-29T04:25:56.851Z,280
2017-04-29T04:26:37.339Z,280
2017-04-29T04:27:17.895Z,276
2017-04-29T04:27:58.412Z,280
2017-04-29T04:28:38.957Z,300
2017-04-29T04:29:19.458Z,312
2017-04-29T04:29:59.980Z,320
2017-04-29T04:30:40.535Z,344
2017-04-29T04:31:21.021Z,352
2017-04-29T04:32:01.548Z,356
2017-04-29T04:32:42.063Z,364
2017-04-29T04:33:22.640Z,356
2017-04-29T04:34:03.127Z,356
2017-04-29T04:34:43.646Z,368
2017-04-29T04:35:24.177Z,376
2017-04-29T04:36:04.683Z,364
2017-04-29T04:36:45.195Z,360
2017-04-29T04:37:25.721Z,348
2017-04-29T04:38:06.220Z,344
2017-04-29T04:38:46.736Z,360
2017-04-29T04:39:27.221Z,388
2017-04-29T04:40:07.740Z,404
2017-04-29T04:40:48.225Z,416
2017-04-29T04:41:28.740Z,424
2017-04-29T04:42:09.236Z,436
2017-04-29T04:42:49.745Z,432
2017-04-29T04:43:30.268Z,436
2017-04-29T04:44:10.794Z,456
2017-04-29T04:44:51.291Z,472
2017-04-29T04:45:31.812Z,468
2017-04-29T04:46:12.334Z,480
2017-04-29T04:46:52.899Z,516
2017-04-29T04:47:33.434Z,528
2017-04-29T04:48:13.947Z,536
2017-04-29T04:48:54.472Z,536
2017-04-29T04:49:35.028Z,536
2017-04-29T04:50:15.570Z,560
2017-04-29T04:50:56.086Z,580
2017-04-29T04:51:36.584Z,616
2017-04-29T04:52:17.097Z,656
2017-04-29T04:52:57.665Z,680
2017-04-29T04:53:38.190Z,708
2017-04-29T04:54:18.707Z,712
2017-04-29T04:54:59.263Z,740
2017-04-29T04:55:39.787Z,720
2017-04-29T04:56:20.269Z,700
2017-04-29T04:57:00.801Z,716
2017-04-29T04:57:41.335Z,716
2017-04-29T04:58:21.828Z,744
2017-04-29T04:59:02.356Z,776
2017-04-29T04:59:42.869Z,772
2017-04-29T05:00:23.352Z,764
2017-04-29T05:01:03.866Z,752
2017-04-29T05:01:44.358Z,744
2017-04-29T05:02:24.903Z,836
2017-04-29T05:03:05.440Z,956
2017-04-29T05:03:45.971Z,972
2017-04-29T05:04:26.499Z,996
2017-04-29T05:05:07.037Z,1004
2017-04-29T05:05:47.571Z,1028
2017-04-29T05:06:28.109Z,1028
2017-04-29T05:07:08.641Z,1068
2017-04-29T05:07:49.154Z,1088
2017-04-29T05:08:29.672Z,1072
2017-04-29T05:09:10.211Z,1088
2017-04-29T05:09:50.729Z,1116
2017-04-29T05:10:31.264Z,1140
2017-04-29T05:11:11.792Z,1144
2017-04-29T05:11:52.304Z,1108
2017-04-29T05:12:32.837Z,1120
2017-04-29T05:13:13.368Z,1176
2017-04-29T05:13:53.894Z,1204
2017-04-29T05:14:34.426Z,1172
2017-04-29T05:15:14.955Z,1120
2017-04-29T05:15:55.462Z,1088
2017-04-29T05:16:35.969Z,1052
2017-04-29T05:17:16.492Z,1100
2017-04-29T05:17:57.009Z,1180
2017-04-29T05:18:37.544Z,1196
2017-04-29T05:19:18.069Z,1216
2017-04-29T05:19:58.576Z,1248
2017-04-29T05:20:39.098Z,1268
2017-04-29T05:21:19.619Z,1252
2017-04-29T05:22:00.164Z,1240
2017-04-29T05:22:40.692Z,1296
2017-04-29T05:23:21.218Z,1360
2017-04-29T05:24:01.745Z,1400
2017-04-29T05:24:42.265Z,1428
2017-04-29T05:25:22.799Z,1396
2017-04-29T05:26:03.320Z,1376
2017-04-29T05:26:43.864Z,1464
2017-04-29T05:27:24.387Z,1472
2017-04-29T05:28:04.917Z,1520
2017-04-29T05:28:45.458Z,1632
2017-04-29T05:29:25.994Z,1748
2017-04-29T05:30:06.525Z,1752
2017-04-29T05:30:47.045Z,1768
2017-04-29T05:31:27.584Z,1852
2017-04-29T05:32:08.120Z,1844
2017-04-29T05:32:48.655Z,1816
2017-04-29T05:33:29.180Z,1824
2017-04-29T05:34:09.716Z,1796
2017-04-29T05:34:50.234Z,1780
2017-04-29T05:35:30.755Z,1856
2017-04-29T05:36:11.269Z,1924
2017-04-29T05:36:51.777Z,1860
2017-04-29T05:37:32.297Z,1940
2017-04-29T05:38:12.818Z,1972
2017-04-29T05:38:53.334Z,1968
2017-04-29T05:39:33.872Z,1944
2017-04-29T05:40:14.412Z,2008
2017-04-29T05:40:54.940Z,2024
2017-04-29T05:41:35.445Z,2040
2017-04-29T05:42:15.974Z,2100
2017-04-29T05:42:56.507Z,2100
2017-04-29T05:43:37.028Z,2100
2017-04-29T05:44:17.575Z,2016
2017-04-29T05:44:58.105Z,1996
2017-04-29T05:45:38.633Z,2076
2017-04-29T05:46:19.162Z,2244
2017-04-29T05:46:59.693Z,2380
2017-04-29T05:47:40.223Z,2452
2017-04-29T05:48:20.744Z,2408
2017-04-29T05:49:01.287Z,2408
2017-04-29T05:49:41.820Z,2424
2017-04-29T05:50:22.347Z,2472
2017-04-29T05:51:02.878Z,2532
2017-04-29T05:51:43.404Z,2684
2017-04-29T05:52:24.120Z,2748
2017-04-29T05:53:04.816Z,2724
2017-04-29T05:53:45.351Z,2688
2017-04-29T05:54:25.890Z,2756
2017-04-29T05:55:06.421Z,2828
2017-04-29T05:55:46.934Z,2784
2017-04-29T05:56:27.471Z,2760
2017-04-29T05:57:07.982Z,2776
2017-04-29T05:57:48.495Z,2848
2017-04-29T05:58:29.025Z,2844
2017-04-29T05:59:09.556Z,2824
2017-04-29T05:59:50.078Z,3028
2017-04-29T06:00:30.605Z,3068
2017-04-29T06:01:11.114Z,2996
2017-04-29T06:01:51.650Z,2872
2017-04-29T06:02:32.230Z,2868
2017-04-29T06:03:12.747Z,2700
2017-04-29T06:03:53.277Z,2632
2017-04-29T06:04:33.799Z,2700
2017-04-29T06:05:14.436Z,2688
2017-04-29T06:05:55.007Z,2728
2017-04-29T06:06:35.499Z,3156
2017-04-29T06:07:16.035Z,3448
2017-04-29T06:07:56.568Z,3588
2017-04-29T06:08:37.095Z,3588
2017-04-29T06:09:17.623Z,3704
2017-04-29T06:09:58.155Z,3808
2017-04-29T06:10:38.692Z,3864
2017-04-29T06:11:19.224Z,3784
2017-04-29T06:11:59.768Z,3772
2017-04-29T06:12:40.309Z,3728
2017-04-29T06:13:20.849Z,3632
2017-04-29T06:14:01.349Z,3636
2017-04-29T06:14:41.869Z,3568
2017-04-29T06:15:22.399Z,3540
2017-04-29T06:16:02.932Z,3596
2017-04-29T06:16:43.470Z,3784
2017-04-29T06:17:24.002Z,3892
2017-04-29T06:18:04.533Z,3956
2017-04-29T06:18:45.074Z,3856
2017-04-29T06:19:25.606Z,3788
2017-04-29T06:20:06.153Z,3688
2017-04-29T06:20:46.676Z,3628
2017-04-29T06:21:27.208Z,3580
2017-04-29T06:22:07.741Z,3364
2017-04-29T06:22:48.274Z,3216
2017-04-29T06:23:28.808Z,3180
2017-04-29T06:24:09.321Z,3184
2017-04-29T06:24:49.849Z,3316
2017-04-29T06:25:30.347Z,3392
2017-04-29T06:26:10.870Z,3640
2017-04-29T06:26:51.397Z,3792
2017-04-29T06:27:31.941Z,4048
2017-04-29T06:28:12.425Z,4224
2017-04-29T06:28:52.930Z,4324
2017-04-29T06:29:33.455Z,4148
2017-04-29T06:30:13.984Z,4008
2017-04-29T06:30:54.514Z,3948
2017-04-29T06:31:35.044Z,4184
2017-04-29T06:32:15.549Z,4384
2017-04-29T06:32:56.075Z,4224
2017-04-29T06:33:36.608Z,4220
2017-04-29T06:34:17.142Z,4236
2017-04-29T06:34:57.675Z,4436
2017-04-29T06:35:38.797Z,4436
2017-04-29T06:36:19.323Z,4500
2017-04-29T06:36:59.847Z,4620
2017-04-29T06:37:40.375Z,4792
2017-04-29T06:38:20.902Z,4732
2017-04-29T06:39:01.478Z,4680
2017-04-29T06:39:42.003Z,4632
2017-04-29T06:40:22.536Z,4624
2017-04-29T06:41:03.064Z,4508
2017-04-29T06:41:43.613Z,4392
2017-04-29T06:42:24.128Z,4280
2017-04-29T06:43:04.661Z,4328
2017-04-29T06:43:45.193Z,4472
2017-04-29T06:44:25.729Z,4436
2017-04-29T06:45:06.271Z,4328
2017-04-29T06:45:46.796Z,4408
2017-04-29T06:46:27.314Z,4640
2017-04-29T06:47:07.841Z,4824
2017-04-29T06:47:48.346Z,5020
2017-04-29T06:48:28.864Z,5176
2017-04-29T06:49:09.425Z,5040
2017-04-29T06:49:49.984Z,4936
2017-04-29T06:50:30.515Z,5020
2017-04-29T06:51:11.109Z,5048
2017-04-29T06:51:51.626Z,4992
2017-04-29T06:52:32.136Z,4784
2017-04-29T06:53:12.671Z,4544
2017-04-29T06:53:53.204Z,4308
2017-04-29T06:54:33.740Z,4072
2017-04-29T06:55:14.271Z,3808
2017-04-29T06:55:54.804Z,3636
2017-04-29T06:56:35.341Z,3548
2017-04-29T06:57:15.874Z,3452
2017-04-29T06:57:56.410Z,3460
2017-04-29T06:58:36.916Z,3352
2017-04-29T06:59:17.451Z,3348
2017-04-29T06:59:57.988Z,3284
2017-04-29T07:00:38.545Z,3536
2017-04-29T07:01:19.078Z,3620
2017-04-29T07:01:59.621Z,3700
2017-04-29T07:02:40.139Z,3884
2017-04-29T07:03:20.657Z,3456
2017-04-29T07:04:01.216Z,3444
2017-04-29T07:04:41.748Z,3212
2017-04-29T07:05:22.324Z,2872
2017-04-29T07:06:02.853Z,3444
2017-04-29T07:06:43.392Z,3256
2017-04-29T07:07:24.092Z,3308
2017-04-29T07:08:05.467Z,3412
2017-04-29T07:08:46.326Z,3544
2017-04-29T07:09:27.537Z,3688
2017-04-29T07:10:09.055Z,3796
2017-04-29T07:10:49.971Z,3892
2017-04-29T07:11:30.494Z,3984
2017-04-29T07:12:11.005Z,4108
2017-04-29T07:12:51.533Z,4264
2017-04-29T07:13:32.052Z,4496
2017-04-29T07:14:12.598Z,4920
2017-04-29T07:14:53.101Z,6996
2017-04-29T07:15:33.635Z,14124
2017-04-29T07:16:14.160Z,23744
2017-04-29T07:16:54.700Z,31168
2017-04-29T07:17:35.236Z,34880
2017-04-29T07:18:15.781Z,35808
2017-04-29T07:18:56.313Z,36288
2017-04-29T07:19:36.852Z,36544
2017-04-29T07:20:17.393Z,36256
2017-04-29T07:20:57.916Z,36576
2017-04-29T07:21:38.455Z,37952
2017-04-29T07:22:19.073Z,39680
2017-04-29T07:22:59.608Z,39936
2017-04-29T07:23:40.144Z,40416
2017-04-29T07:24:20.674Z,41504
2017-04-29T07:25:01.196Z,41408
2017-04-29T07:25:41.739Z,39456
2017-04-29T07:26:22.275Z,38816
2017-04-29T07:27:02.808Z,39296
2017-04-29T07:27:43.336Z,39072
2017-04-29T07:28:23.879Z,37344
2017-04-29T07:29:04.392Z,35840
2017-04-29T07:29:44.943Z,36000
2017-04-29T07:30:25.467Z,38176
2017-04-29T07:31:06.006Z,41984
2017-04-29T07:31:46.547Z,42432
2017-04-29T07:32:27.092Z,42304
2017-04-29T07:33:07.624Z,42272
2017-04-29T07:33:48.165Z,42848
2017-04-29T07:34:28.666Z,41696
2017-04-29T07:35:09.215Z,41760
2017-04-29T07:35:49.739Z,44224
2017-04-29T07:36:30.267Z,44256
2017-04-29T07:37:10.852Z,42176
2017-04-29T07:37:51.383Z,40608
2017-04-29T07:38:31.920Z,41728
2017-04-29T07:39:12.463Z,40928
2017-04-29T07:39:52.982Z,41248
2017-04-29T07:40:33.510Z,42976
2017-04-29T07:41:14.046Z,44576
2017-04-29T07:41:54.576Z,43712
2017-04-29T07:42:35.119Z,45088
2017-04-29T07:43:15.717Z,47008
2017-04-29T07:43:56.255Z,46464
2017-04-29T07:44:36.809Z,45376
2017-04-29T07:45:17.362Z,45536
2017-04-29T07:45:57.897Z,46144
2017-04-29T07:46:38.438Z,46528
2017-04-29T07:47:18.971Z,47008
2017-04-29T07:47:59.507Z,47840
2017-04-29T07:48:40.035Z,48064
2017-04-29T07:49:20.564Z,48576
2017-04-29T07:50:01.103Z,47072
2017-04-29T07:50:41.639Z,45440
2017-04-29T07:51:22.183Z,45568
2017-04-29T07:52:02.716Z,45632
2017-04-29T07:52:43.238Z,47040
2017-04-29T07:53:23.780Z,44288
2017-04-29T07:54:04.327Z,39872
2017-04-29T07:54:44.859Z,35008
2017-04-29T07:55:25.383Z,27840
2017-04-29T07:56:05.920Z,20608
2017-04-29T07:56:46.454Z,16416
2017-04-29T07:57:26.989Z,8456
2017-04-29T07:58:07.536Z,8400
2017-04-29T07:58:48.077Z,8584
2017-04-29T07:59:28.626Z,8300
2017-04-29T08:00:09.175Z,8328
2017-04-29T08:00:49.718Z,7924
2017-04-29T08:01:30.241Z,7672
2017-04-29T08:02:10.758Z,8508
2017-04-29T08:02:51.292Z,8128
2017-04-29T08:03:31.819Z,8476
2017-04-29T08:04:12.354Z,9412
2017-04-29T08:04:52.874Z,10468
2017-04-29T08:05:33.390Z,11160
2017-04-29T08:06:13.926Z,11612
2017-04-29T08:06:54.480Z,12600
2017-04-29T08:07:35.021Z,12064
2017-04-29T08:08:15.559Z,9832
2017-04-29T08:08:56.102Z,8300
2017-04-29T08:09:36.618Z,7056
2017-04-29T08:10:17.177Z,6648
2017-04-29T08:10:57.704Z,6356
2017-04-29T08:11:38.239Z,6356
2017-04-29T08:12:18.782Z,6336
2017-04-29T08:12:59.332Z,5808
2017-04-29T08:13:39.884Z,5564
2017-04-29T08:14:20.403Z,5032
2017-04-29T08:15:00.934Z,4908
2017-04-29T08:15:41.483Z,4820
2017-04-29T08:16:22.018Z,4924
2017-04-29T08:17:02.543Z,5044
2017-04-29T08:17:43.082Z,4776
2017-04-29T08:18:23.611Z,4904
2017-04-29T08:19:04.111Z,4864
2017-04-29T08:19:44.643Z,5548
2017-04-29T08:20:25.180Z,6424
2017-04-29T08:21:05.715Z,6740
2017-04-29T08:21:46.255Z,5820
2017-04-29T08:22:26.777Z,5784
2017-04-29T08:23:07.301Z,5372
2017-04-29T08:23:47.840Z,5720
2017-04-29T08:24:28.381Z,6148
2017-04-29T08:25:08.910Z,6296
2017-04-29T08:25:49.441Z,6220
2017-04-29T08:26:29.949Z,6208
2017-04-29T08:27:10.493Z,6520
2017-04-29T08:27:51.022Z,6860
2017-04-29T08:28:31.559Z,6972
2017-04-29T08:29:12.098Z,6956
2017-04-29T08:29:52.614Z,7192
2017-04-29T08:30:33.144Z,7212
2017-04-29T08:31:13.694Z,7532
2017-04-29T08:31:54.229Z,8872
2017-04-29T08:32:34.761Z,7348
2017-04-29T08:33:15.345Z,6088
2017-04-29T08:33:55.886Z,5776
2017-04-29T08:34:36.415Z,5168
2017-04-29T08:35:16.945Z,4772
2017-04-29T08:35:57.483Z,4668
2017-04-29T08:36:38.021Z,4712
2017-04-29T08:37:18.562Z,4676
2017-04-29T08:37:59.101Z,4644
2017-04-29T08:38:39.639Z,4544
2017-04-29T08:39:20.168Z,4384
2017-04-29T08:40:00.715Z,4336
2017-04-29T08:40:41.229Z,4360
2017-04-29T08:41:21.758Z,4496
2017-04-29T08:42:02.288Z,4752
2017-04-29T08:42:42.814Z,4832
2017-04-29T08:43:23.331Z,4944
2017-04-29T08:44:03.859Z,5116
2017-04-29T08:44:44.372Z,5224
2017-04-29T08:45:24.889Z,4744
2017-04-29T08:46:05.428Z,4312
2017-04-29T08:46:45.956Z,3872
2017-04-29T08:47:26.489Z,3536
2017-04-29T08:48:07.010Z,3436
2017-04-29T08:48:47.531Z,3508
2017-04-29T08:49:28.050Z,3480
2017-04-29T08:50:08.593Z,3852
2017-04-29T08:50:49.123Z,4300
2017-04-29T08:51:29.658Z,4448
2017-04-29T08:52:10.180Z,4272
2017-04-29T08:52:50.711Z,4280
2017-04-29T08:53:31.249Z,4468
2017-04-29T08:54:11.787Z,4704
2017-04-29T08:54:52.332Z,5180
2017-04-29T08:55:32.855Z,5604
2017-04-29T08:56:13.378Z,7204
2017-04-29T08:56:53.915Z,5600
2017-04-29T08:57:34.441Z,5416
2017-04-29T08:58:15.000Z,6228
2017-04-29T08:58:55.527Z,43296
2017-04-29T08:59:36.038Z,22112
2017-04-29T09:00:16.563Z,11740
2017-04-29T09:00:57.125Z,11080
2017-04-29T09:01:37.634Z,11492
2017-04-29T09:02:18.159Z,12232
2017-04-29T09:02:58.685Z,13184
2017-04-29T09:03:39.222Z,13856
2017-04-29T09:04:19.758Z,14512
2017-04-29T09:05:00.287Z,15988
2017-04-29T09:05:40.797Z,16124
2017-04-29T09:06:21.305Z,16268
2017-04-29T09:07:01.815Z,15608
2017-04-29T09:07:42.319Z,16504
2017-04-29T09:08:22.848Z,14632
2017-04-29T09:09:03.385Z,15248
2017-04-29T09:09:43.940Z,25248
2017-04-29T09:10:24.456Z,15308
2017-04-29T09:11:05.028Z,13400
2017-04-29T09:11:45.480Z,12800
2017-04-29T09:12:26.040Z,13680
2017-04-29T09:13:06.567Z,10180
2017-04-29T09:13:47.088Z,8904
2017-04-29T09:14:27.634Z,7692
2017-04-29T09:15:08.173Z,6748
2017-04-29T09:15:48.692Z,6040
2017-04-29T09:16:29.281Z,5468
2017-04-29T09:17:09.785Z,5136
2017-04-29T09:17:50.297Z,4836
2017-04-29T09:18:30.812Z,4660
2017-04-29T09:19:11.307Z,4604
2017-04-29T09:19:51.888Z,4672
2017-04-29T09:20:32.362Z,4796
2017-04-29T09:21:12.921Z,5056
2017-04-29T09:21:53.472Z,5116
2017-04-29T09:22:34.010Z,4912
2017-04-29T09:23:14.526Z,4612
2017-04-29T09:23:55.100Z,4332